createdAt,value
2023-02-23T00:00:28.814Z,12.35
2023-02-23T00:02:36.430Z,11.32
2023-02-23T00:04:42.174Z,12.80
2023-02-23T00:06:48.198Z,12.95
2023-02-23T00:08:53.140Z,11.52
2023-02-23T00:10:59.125Z,12.88
2023-02-23T00:13:05.130Z,13.15
2023-02-23T00:15:11.310Z,10.93
2023-02-23T00:17:17.695Z,12.40
2023-02-23T00:19:25.487Z,12.48
2023-02-23T00:21:33.098Z,12.52
2023-02-23T00:23:38.841Z,14.30
2023-02-23T00:25:46.163Z,14.15
2023-02-23T00:27:51.020Z,15.00
2023-02-23T00:29:56.776Z,14.93
2023-02-23T00:32:01.649Z,14.43
2023-02-23T00:34:07.632Z,14.85
2023-02-23T00:36:17.273Z,13.52
2023-02-23T00:38:22.646Z,18.08
2023-02-23T00:40:27.780Z,13.55
2023-02-23T00:44:40.708Z,12.88
2023-02-23T00:46:49.222Z,12.38
2023-02-23T00:48:56.859Z,10.45
2023-02-23T00:51:02.477Z,13.00
2023-02-23T00:53:11.502Z,14.10
2023-02-23T00:55:17.753Z,11.48
2023-02-23T00:57:22.657Z,11.50
2023-02-23T00:59:29.814Z,10.77
2023-02-23T01:01:35.196Z,11.70
2023-02-23T01:03:41.823Z,10.90
2023-02-23T01:05:50.066Z,11.05
2023-02-23T01:07:54.975Z,11.23
2023-02-23T01:10:18.893Z,12.40
2023-02-23T01:12:25.669Z,12.25
2023-02-23T01:14:31.417Z,14.00
2023-02-23T01:16:39.098Z,11.90
2023-02-23T01:18:45.665Z,12.63
2023-02-23T01:20:51.134Z,13.05
2023-02-23T01:22:55.927Z,14.95
2023-02-23T01:25:03.464Z,12.40
2023-02-23T01:27:11.433Z,14.70
2023-02-23T01:31:24.063Z,14.70
2023-02-23T01:33:29.119Z,16.08
2023-02-23T01:35:34.728Z,13.82
2023-02-23T01:37:40.927Z,19.85
2023-02-23T01:39:46.329Z,16.95
2023-02-23T01:41:55.662Z,14.32
2023-02-23T01:44:01.775Z,16.42
2023-02-23T01:46:07.020Z,14.48
2023-02-23T01:48:15.358Z,14.57
2023-02-23T01:50:21.764Z,15.23
2023-02-23T01:52:27.610Z,15.68
2023-02-23T01:54:36.497Z,18.60
2023-02-23T01:56:47.604Z,15.93
2023-02-23T01:59:00.062Z,17.83
2023-02-23T02:01:05.731Z,16.17
2023-02-23T02:03:17.270Z,17.95
2023-02-23T02:05:23.293Z,15.80
2023-02-23T02:07:31.803Z,14.02
2023-02-23T02:09:38.103Z,13.80
2023-02-23T02:11:45.195Z,12.52
2023-02-23T02:13:50.104Z,15.55
2023-02-23T02:16:28.323Z,17.10
2023-02-23T02:18:42.045Z,19.15
2023-02-23T02:21:06.278Z,17.27
2023-02-23T02:23:37.283Z,16.38
2023-02-23T02:25:57.789Z,17.95
2023-02-23T02:28:35.867Z,18.05
2023-02-23T02:31:13.412Z,19.42
2023-02-23T02:33:58.687Z,20.23
2023-02-23T02:36:23.796Z,19.08
2023-02-23T02:38:53.875Z,16.55
2023-02-23T02:41:05.685Z,23.80
2023-02-23T02:43:17.814Z,18.38
2023-02-23T02:45:29.641Z,17.13
2023-02-23T02:47:41.724Z,14.23
2023-02-23T02:49:54.124Z,17.42
2023-02-23T02:52:08.178Z,16.80
2023-02-23T02:54:23.685Z,16.98
2023-02-23T02:56:30.029Z,17.30
2023-02-23T02:58:35.752Z,16.38
2023-02-23T03:00:56.921Z,19.73
2023-02-23T03:03:15.168Z,16.40
2023-02-23T03:05:34.836Z,15.13
2023-02-23T03:07:59.215Z,19.67
2023-02-23T03:10:28.462Z,18.98
2023-02-23T03:12:52.254Z,15.00
2023-02-23T03:17:47.448Z,14.68
2023-02-23T03:20:12.971Z,16.80
2023-02-23T03:22:37.166Z,16.73
2023-02-23T03:24:57.771Z,17.00
2023-02-23T03:27:22.930Z,18.35
2023-02-23T03:29:48.117Z,17.60
2023-02-23T03:32:15.435Z,17.27
2023-02-23T03:34:38.035Z,18.10
2023-02-23T03:37:02.700Z,18.88
2023-02-23T03:39:30.977Z,17.95
2023-02-23T03:41:51.277Z,18.42
2023-02-23T03:44:16.019Z,19.67
2023-02-23T03:46:35.596Z,16.60
2023-02-23T03:48:58.944Z,17.83
2023-02-23T03:51:20.729Z,17.63
2023-02-23T03:53:44.915Z,19.15
2023-02-23T03:56:09.493Z,21.35
2023-02-23T03:58:31.921Z,18.27
2023-02-23T04:00:58.249Z,20.48
2023-02-23T04:05:36.468Z,18.08
2023-02-23T04:07:56.235Z,18.38
2023-02-23T04:10:13.643Z,18.55
2023-02-23T04:12:36.221Z,18.38
2023-02-23T04:14:42.074Z,19.60
2023-02-23T04:16:48.134Z,20.13
2023-02-23T04:18:55.875Z,18.63
2023-02-23T04:21:01.982Z,19.02
2023-02-23T04:23:07.102Z,18.23
2023-02-23T04:25:13.274Z,20.27
2023-02-23T04:27:18.870Z,20.48
2023-02-23T04:29:24.260Z,27.20
2023-02-23T04:31:29.291Z,19.35
2023-02-23T04:33:36.694Z,19.00
2023-02-23T04:35:41.512Z,20.88
2023-02-23T04:37:46.424Z,20.38
2023-02-23T04:39:51.316Z,20.83
2023-02-23T04:41:56.202Z,18.10
2023-02-23T04:44:01.058Z,24.58
2023-02-23T04:46:05.968Z,18.63
2023-02-23T04:48:11.107Z,19.30
2023-02-23T04:50:18.974Z,19.92
2023-02-23T04:52:31.704Z,19.95
2023-02-23T04:54:36.837Z,21.65
2023-02-23T04:56:41.846Z,23.73
2023-02-23T04:58:46.680Z,21.00
2023-02-23T05:00:51.474Z,20.52
2023-02-23T05:02:56.384Z,20.20
2023-02-23T05:05:01.303Z,20.33
2023-02-23T05:07:08.836Z,21.20
2023-02-23T05:09:13.619Z,23.23
2023-02-23T05:11:18.611Z,22.60
2023-02-23T05:13:23.581Z,21.38
2023-02-23T05:15:30.446Z,20.48
2023-02-23T05:17:35.219Z,23.92
2023-02-23T05:19:40.143Z,22.70
2023-02-23T05:21:44.959Z,22.73
2023-02-23T05:23:52.378Z,24.80
2023-02-23T05:25:58.491Z,22.92
2023-02-23T05:28:03.860Z,23.50
2023-02-23T05:30:10.406Z,25.25
2023-02-23T05:32:15.467Z,22.45
2023-02-23T05:34:20.320Z,25.48
2023-02-23T05:36:25.274Z,25.73
2023-02-23T05:38:30.141Z,24.98
2023-02-23T05:40:37.554Z,25.77
2023-02-23T05:42:42.357Z,25.55
2023-02-23T05:44:47.212Z,24.02
2023-02-23T05:46:51.978Z,26.75
2023-02-23T05:49:00.920Z,24.25
2023-02-23T05:51:06.391Z,25.08
2023-02-23T05:53:17.400Z,21.63
2023-02-23T05:55:23.178Z,22.98
2023-02-23T05:57:30.635Z,24.75
2023-02-23T05:59:35.439Z,23.30
2023-02-23T06:01:40.331Z,26.48
2023-02-23T06:03:45.166Z,22.48
2023-02-23T06:05:56.157Z,27.42
2023-02-23T06:08:01.122Z,27.08
2023-02-23T06:10:06.644Z,22.83
2023-02-23T06:12:11.875Z,25.80
2023-02-23T06:14:19.518Z,25.27
2023-02-23T06:16:24.434Z,26.40
2023-02-23T06:18:29.522Z,25.73
2023-02-23T06:20:34.381Z,23.23
2023-02-23T06:22:39.378Z,25.25
2023-02-23T06:24:44.177Z,26.98
2023-02-23T06:26:49.125Z,24.40
2023-02-23T06:28:53.932Z,24.25
2023-02-23T06:31:01.736Z,24.02
2023-02-23T06:33:07.075Z,23.25
2023-02-23T06:35:12.491Z,22.92
2023-02-23T06:39:22.062Z,24.17
2023-02-23T06:41:27.878Z,24.25
2023-02-23T06:43:32.670Z,24.63
2023-02-23T06:45:37.665Z,25.55
2023-02-23T06:47:45.240Z,26.10
2023-02-23T06:49:50.554Z,28.20
2023-02-23T06:54:04.860Z,27.33
2023-02-23T06:56:12.444Z,27.55
2023-02-23T06:58:17.831Z,30.95
2023-02-23T07:00:23.875Z,24.48
2023-02-23T07:02:28.842Z,29.63
2023-02-23T07:04:36.625Z,27.35
2023-02-23T07:06:41.456Z,27.48
2023-02-23T07:08:46.305Z,27.35
2023-02-23T07:10:51.548Z,28.15
2023-02-23T07:12:59.108Z,25.40
2023-02-23T07:15:04.266Z,25.85
2023-02-23T07:19:17.149Z,28.70
2023-02-23T07:21:24.638Z,26.33
2023-02-23T07:23:29.527Z,27.95
2023-02-23T07:25:34.594Z,28.45
2023-02-23T07:27:39.551Z,25.65
2023-02-23T07:29:44.548Z,28.38
2023-02-23T07:31:50.188Z,27.20
2023-02-23T07:33:55.851Z,27.35
2023-02-23T07:36:00.678Z,24.88
2023-02-23T07:38:08.213Z,31.48
2023-02-23T07:40:14.510Z,27.63
2023-02-23T07:42:19.435Z,26.45
2023-02-23T07:44:24.264Z,27.73
2023-02-23T07:46:29.476Z,29.08
2023-02-23T07:48:34.295Z,26.60
2023-02-23T07:50:39.097Z,28.95
2023-02-23T07:52:45.574Z,27.23
2023-02-23T07:54:54.488Z,24.45
2023-02-23T07:56:59.511Z,26.55
2023-02-23T07:59:04.469Z,27.70
2023-02-23T08:01:09.944Z,26.65
2023-02-23T08:03:14.756Z,30.83
2023-02-23T08:05:20.034Z,31.40
2023-02-23T08:09:32.743Z,31.55
2023-02-23T08:11:40.659Z,28.48
2023-02-23T08:13:45.671Z,31.13
2023-02-23T08:15:50.439Z,29.30
2023-02-23T08:17:55.520Z,33.38
2023-02-23T08:20:00.498Z,32.38
2023-02-23T08:22:07.274Z,30.10
2023-02-23T08:24:14.190Z,37.45
2023-02-23T08:28:26.620Z,32.88
2023-02-23T08:30:31.573Z,32.60
2023-02-23T08:32:37.853Z,28.45
2023-02-23T08:34:43.407Z,28.17
2023-02-23T08:36:48.343Z,33.65
2023-02-23T08:38:54.778Z,31.40
2023-02-23T08:41:03.715Z,27.77
2023-02-23T08:43:08.693Z,29.75
2023-02-23T08:45:16.975Z,25.90
2023-02-23T08:47:24.443Z,28.52
2023-02-23T08:49:29.565Z,26.35
2023-02-23T08:53:40.270Z,25.07
2023-02-23T08:55:45.819Z,24.15
2023-02-23T08:57:50.950Z,29.15
2023-02-23T08:59:56.043Z,27.83
2023-02-23T09:02:03.821Z,30.13
2023-02-23T09:04:08.994Z,30.05
2023-02-23T09:06:17.017Z,29.85
2023-02-23T09:08:22.183Z,31.75
2023-02-23T09:10:29.080Z,28.83
2023-02-23T09:12:36.052Z,30.42
2023-02-23T09:14:40.929Z,33.47
2023-02-23T09:16:46.242Z,31.58
2023-02-23T09:21:00.623Z,29.75
2023-02-23T09:23:05.434Z,29.50
2023-02-23T09:25:12.899Z,35.90
2023-02-23T09:27:17.901Z,28.65
2023-02-23T09:29:23.173Z,32.35
2023-02-23T09:31:28.414Z,31.90
2023-02-23T09:33:33.224Z,33.08
2023-02-23T09:35:41.522Z,29.40
2023-02-23T09:37:48.403Z,34.42
2023-02-23T09:39:54.815Z,31.20
2023-02-23T09:42:10.476Z,31.48
2023-02-23T09:44:25.106Z,29.80
2023-02-23T09:46:38.475Z,29.10
2023-02-23T09:48:44.161Z,34.95
2023-02-23T09:50:55.189Z,30.60
2023-02-23T09:53:04.755Z,29.55
2023-02-23T09:55:12.748Z,30.92
2023-02-23T09:57:21.214Z,34.00
2023-02-23T09:59:26.443Z,27.95
2023-02-23T10:03:58.455Z,32.67
2023-02-23T10:06:12.199Z,36.13
2023-02-23T10:08:25.354Z,30.73
2023-02-23T10:10:41.773Z,33.20
2023-02-23T10:12:57.090Z,31.52
2023-02-23T10:15:10.467Z,35.50
2023-02-23T10:17:27.961Z,34.65
2023-02-23T10:19:41.767Z,32.63
2023-02-23T10:21:53.972Z,31.17
2023-02-23T10:24:04.655Z,29.05
2023-02-23T10:26:14.610Z,32.42
2023-02-23T10:28:21.951Z,30.15
2023-02-23T10:30:28.871Z,30.35
2023-02-23T10:32:43.097Z,34.70
2023-02-23T10:34:52.176Z,37.05
2023-02-23T10:37:02.321Z,31.30
2023-02-23T10:39:10.179Z,29.17
2023-02-23T10:41:15.832Z,34.38
2023-02-23T10:43:20.896Z,30.52
2023-02-23T10:45:27.732Z,33.58
2023-02-23T10:47:35.593Z,27.92
2023-02-23T10:49:46.412Z,25.67
2023-02-23T10:51:52.420Z,28.52
2023-02-23T10:54:07.831Z,28.20
2023-02-23T10:58:21.953Z,27.95
2023-02-23T11:00:33.176Z,27.27
2023-02-23T11:02:39.407Z,31.23
2023-02-23T11:04:54.242Z,23.98
2023-02-23T11:07:11.771Z,23.50
2023-02-23T11:09:43.228Z,26.08
2023-02-23T11:11:59.825Z,25.08
2023-02-23T11:14:20.059Z,26.88
2023-02-23T11:16:27.670Z,22.67
2023-02-23T11:18:33.187Z,21.80
2023-02-23T11:20:41.838Z,22.13
2023-02-23T11:22:47.645Z,21.20
2023-02-23T11:24:56.233Z,22.25
2023-02-23T11:27:03.972Z,24.08
2023-02-23T11:29:17.941Z,20.48
2023-02-23T11:31:26.061Z,21.05
2023-02-23T11:33:36.212Z,19.42
2023-02-23T11:35:41.679Z,20.65
2023-02-23T11:37:46.496Z,19.58
2023-02-23T11:40:00.466Z,19.17
2023-02-23T11:42:19.970Z,21.77
2023-02-23T11:44:26.054Z,25.05
2023-02-23T11:46:33.744Z,22.35
2023-02-23T11:48:47.123Z,21.73
2023-02-23T11:50:53.011Z,24.30
2023-02-23T11:53:06.329Z,25.00
2023-02-23T11:55:21.154Z,20.73
2023-02-23T11:57:29.324Z,21.57
2023-02-23T11:59:37.935Z,20.38
2023-02-23T12:01:46.530Z,21.73
2023-02-23T12:03:56.808Z,20.83
2023-02-23T12:06:02.534Z,21.80
2023-02-23T12:08:12.878Z,20.40
2023-02-23T12:10:27.135Z,20.55
2023-02-23T12:12:34.863Z,17.38
2023-02-23T12:14:45.156Z,16.23
2023-02-23T12:16:56.073Z,17.73
2023-02-23T12:19:05.520Z,17.63
2023-02-23T12:21:35.743Z,16.48
2023-02-23T12:23:44.062Z,15.07
2023-02-23T12:25:56.909Z,15.93
2023-02-23T12:28:18.612Z,16.55
2023-02-23T12:30:34.776Z,18.52
2023-02-23T12:32:48.799Z,15.95
2023-02-23T12:34:59.543Z,16.95
2023-02-23T12:37:13.222Z,17.02
2023-02-23T12:39:25.679Z,15.50
2023-02-23T12:41:40.535Z,16.33
2023-02-23T12:43:51.677Z,14.63
2023-02-23T12:46:08.332Z,13.43
2023-02-23T12:48:28.341Z,14.90
2023-02-23T12:50:36.559Z,15.98
2023-02-23T12:52:46.486Z,15.48
2023-02-23T12:54:55.465Z,14.00
2023-02-23T12:57:21.049Z,14.60
2023-02-23T12:59:46.460Z,16.60
2023-02-23T13:01:58.654Z,13.63
2023-02-23T13:04:23.788Z,15.32
2023-02-23T13:06:39.996Z,15.05
2023-02-23T13:09:03.493Z,15.40
2023-02-23T13:11:20.990Z,14.73
2023-02-23T13:13:39.515Z,15.90
2023-02-23T13:15:56.500Z,14.88
2023-02-23T13:18:06.357Z,11.70
2023-02-23T13:20:21.606Z,14.43
2023-02-23T13:22:33.595Z,11.90
2023-02-23T13:24:41.464Z,12.55
2023-02-23T13:26:52.157Z,12.55
2023-02-23T13:29:05.267Z,14.27
2023-02-23T13:31:21.131Z,12.55
2023-02-23T13:33:43.657Z,13.38
2023-02-23T13:35:48.792Z,11.50
2023-02-23T13:37:59.718Z,12.60
2023-02-23T13:40:21.342Z,12.52
2023-02-23T13:42:45.420Z,11.82
2023-02-23T13:44:58.490Z,10.05
2023-02-23T13:47:14.378Z,10.52
2023-02-23T13:49:38.731Z,10.15
2023-02-23T13:51:49.485Z,9.15
2023-02-23T13:54:03.745Z,9.68
2023-02-23T13:56:11.086Z,10.82
2023-02-23T13:58:18.583Z,8.63
2023-02-23T14:00:27.390Z,9.90
2023-02-23T14:02:40.899Z,10.23
2023-02-23T14:04:46.143Z,10.15
2023-02-23T14:06:57.336Z,11.27
2023-02-23T14:09:09.707Z,10.88
2023-02-23T14:11:43.492Z,11.05
2023-02-23T14:14:02.344Z,11.75
2023-02-23T14:16:30.845Z,11.55
2023-02-23T14:18:36.649Z,11.20
2023-02-23T14:20:57.617Z,13.48
2023-02-23T14:23:18.591Z,11.07
2023-02-23T14:25:51.446Z,11.15
2023-02-23T14:28:02.057Z,13.40
2023-02-23T14:30:17.306Z,10.15
2023-02-23T14:32:35.066Z,12.55
2023-02-23T14:34:47.671Z,12.02
2023-02-23T14:36:56.586Z,12.48
2023-02-23T14:39:03.865Z,14.45
2023-02-23T14:41:10.321Z,12.32
2023-02-23T14:43:45.092Z,12.95
2023-02-23T14:45:50.004Z,12.65
2023-02-23T14:48:00.641Z,14.80
2023-02-23T14:50:05.791Z,11.38
2023-02-23T14:52:15.986Z,14.35
2023-02-23T14:54:28.174Z,9.77
2023-02-23T14:56:43.682Z,10.88
2023-02-23T14:58:55.540Z,9.68
2023-02-23T15:01:00.366Z,11.27
2023-02-23T15:03:12.189Z,11.57
2023-02-23T15:05:18.376Z,12.20
2023-02-23T15:07:31.841Z,9.38
2023-02-23T15:09:42.696Z,9.98
2023-02-23T15:11:54.134Z,12.60
2023-02-23T15:13:58.970Z,10.63
2023-02-23T15:16:08.441Z,9.73
2023-02-23T15:18:25.092Z,10.50
2023-02-23T15:22:41.801Z,11.80
2023-02-23T15:24:50.650Z,13.48
2023-02-23T15:26:55.869Z,13.75
2023-02-23T15:29:08.062Z,13.05
2023-02-23T15:31:14.285Z,13.38
2023-02-23T15:33:28.502Z,14.00
2023-02-23T15:35:38.033Z,14.10
2023-02-23T15:37:45.472Z,16.73
2023-02-23T15:39:57.030Z,16.02
2023-02-23T15:42:02.310Z,17.52
2023-02-23T15:44:14.245Z,14.88
2023-02-23T15:46:27.783Z,15.48
2023-02-23T15:48:45.979Z,19.02
2023-02-23T15:50:56.156Z,14.20
2023-02-23T15:53:04.215Z,16.30
2023-02-23T15:55:12.589Z,15.23
2023-02-23T15:57:23.098Z,19.25
2023-02-23T15:59:31.294Z,15.70
2023-02-23T16:01:36.134Z,15.00
2023-02-23T16:03:49.297Z,16.77
2023-02-23T16:06:01.971Z,14.10
2023-02-23T16:08:11.755Z,17.20
2023-02-23T16:10:25.667Z,16.90
2023-02-23T16:12:34.331Z,15.40
2023-02-23T16:14:47.246Z,17.73
2023-02-23T16:17:10.406Z,18.73
2023-02-23T16:19:21.634Z,19.42
2023-02-23T16:21:30.890Z,13.10
2023-02-23T16:23:39.011Z,14.90
2023-02-23T16:25:46.181Z,16.63
2023-02-23T16:27:59.617Z,16.58
2023-02-23T16:30:19.300Z,16.40
2023-02-23T16:32:25.456Z,14.05
2023-02-23T16:34:37.686Z,18.42
2023-02-23T16:36:43.579Z,15.32
2023-02-23T16:39:00.592Z,14.43
2023-02-23T16:41:06.053Z,16.17
2023-02-23T16:43:12.789Z,14.23
2023-02-23T16:45:20.213Z,15.18
2023-02-23T16:47:37.072Z,13.00
2023-02-23T16:49:44.534Z,12.00
2023-02-23T16:51:49.664Z,13.85
2023-02-23T16:56:01.009Z,15.73
2023-02-23T16:58:06.627Z,15.85
2023-02-23T17:00:18.150Z,18.58
2023-02-23T17:02:25.227Z,15.63
2023-02-23T17:04:30.261Z,12.15
2023-02-23T17:06:38.370Z,14.73
2023-02-23T17:08:52.196Z,14.93
2023-02-23T17:11:01.241Z,13.68
2023-02-23T17:13:08.219Z,13.77
2023-02-23T17:15:20.195Z,16.80
2023-02-23T17:17:26.100Z,15.82
2023-02-23T17:19:30.950Z,15.90
2023-02-23T17:21:38.939Z,13.77
2023-02-23T17:23:48.376Z,14.35
2023-02-23T17:25:55.575Z,15.65
2023-02-23T17:28:01.356Z,13.85
2023-02-23T17:30:11.842Z,16.10
2023-02-23T17:32:16.834Z,18.42
2023-02-23T17:36:27.628Z,16.27
2023-02-23T17:38:39.864Z,15.07
2023-02-23T17:40:44.750Z,16.48
2023-02-23T17:42:49.576Z,13.27
2023-02-23T17:44:56.885Z,18.80
2023-02-23T17:47:01.664Z,14.85
2023-02-23T17:49:07.310Z,12.48
2023-02-23T17:51:13.680Z,15.93
2023-02-23T17:53:18.464Z,13.85
2023-02-23T17:55:26.811Z,11.00
2023-02-23T17:57:33.135Z,11.65
2023-02-23T17:59:38.038Z,13.48
2023-02-23T18:01:43.022Z,12.18
2023-02-23T18:03:48.264Z,15.48
2023-02-23T18:08:00.872Z,16.35
2023-02-23T18:10:06.009Z,19.00
2023-02-23T18:14:18.169Z,19.40
2023-02-23T18:16:24.527Z,18.02
2023-02-23T18:18:30.077Z,17.63
2023-02-23T18:20:35.039Z,17.15
2023-02-23T18:22:40.104Z,20.70
2023-02-23T18:24:44.997Z,15.77
2023-02-23T18:26:50.184Z,13.82
2023-02-23T18:28:59.792Z,17.10
2023-02-23T18:31:05.069Z,17.42
2023-02-23T18:33:10.578Z,15.05
2023-02-23T18:35:15.486Z,15.93
2023-02-23T18:37:25.245Z,17.38
2023-02-23T18:39:30.731Z,18.02
2023-02-23T18:43:40.648Z,15.52
2023-02-23T18:47:52.793Z,19.10
2023-02-23T18:50:01.823Z,17.65
2023-02-23T18:52:09.529Z,22.85
2023-02-23T18:54:16.962Z,21.58
2023-02-23T18:56:25.197Z,20.50
2023-02-23T18:58:30.205Z,19.08
2023-02-23T19:00:42.859Z,17.27
2023-02-23T19:02:51.122Z,20.08
2023-02-23T19:05:02.969Z,28.00
2023-02-23T19:07:08.207Z,23.77
2023-02-23T19:11:19.807Z,23.42
2023-02-23T19:15:29.325Z,24.65
2023-02-23T19:17:34.099Z,23.67
2023-02-23T19:19:41.562Z,25.02
2023-02-23T19:21:46.363Z,17.95
2023-02-23T19:23:51.753Z,17.70
2023-02-23T19:25:58.964Z,15.30
2023-02-23T19:28:04.158Z,15.98
2023-02-23T19:30:12.165Z,15.95
2023-02-23T19:32:18.712Z,16.00
2023-02-23T19:34:23.649Z,13.45
2023-02-23T19:36:33.850Z,17.95
2023-02-23T19:38:39.284Z,16.27
2023-02-23T19:40:44.245Z,13.45
2023-02-23T19:42:49.659Z,14.32
2023-02-23T19:44:56.633Z,16.83
2023-02-23T19:47:01.464Z,19.33
2023-02-23T19:49:07.239Z,13.63
2023-02-23T19:51:13.419Z,13.48
2023-02-23T19:53:20.934Z,16.85
2023-02-23T19:55:25.861Z,14.45
2023-02-23T19:57:31.028Z,14.40
2023-02-23T20:01:40.675Z,14.85
2023-02-23T20:03:49.667Z,17.83
2023-02-23T20:05:57.492Z,16.02
2023-02-23T20:08:02.376Z,18.55
2023-02-23T20:10:14.019Z,18.63
2023-02-23T20:12:19.014Z,21.80
2023-02-23T20:14:25.083Z,21.90
2023-02-23T20:16:30.220Z,23.23
2023-02-23T20:20:42.334Z,18.48
2023-02-23T20:22:47.556Z,17.65
2023-02-23T20:27:03.027Z,20.13
2023-02-23T20:29:11.268Z,17.30
2023-02-23T20:31:18.183Z,17.63
2023-02-23T20:33:23.987Z,24.35
2023-02-23T20:35:32.301Z,21.80
2023-02-23T20:37:37.522Z,21.75
2023-02-23T20:39:42.530Z,19.35
2023-02-23T20:41:55.656Z,20.38
2023-02-23T20:44:03.588Z,22.75
2023-02-23T20:46:09.233Z,24.42
2023-02-23T20:48:16.038Z,28.25
2023-02-23T20:50:22.056Z,26.25
2023-02-23T20:52:27.196Z,20.25
2023-02-23T20:56:37.409Z,18.88
2023-02-23T20:58:42.727Z,18.55
2023-02-23T21:00:50.442Z,21.63
2023-02-23T21:02:55.929Z,15.80
2023-02-23T21:05:00.893Z,19.35
2023-02-23T21:07:07.373Z,18.27
2023-02-23T21:09:18.084Z,18.58
2023-02-23T21:11:25.144Z,20.48
2023-02-23T21:13:30.215Z,17.88
2023-02-23T21:15:37.160Z,19.52
2023-02-23T21:17:45.060Z,17.55
2023-02-23T21:19:49.932Z,16.83
2023-02-23T21:21:58.034Z,17.50
2023-02-23T21:24:02.906Z,18.45
2023-02-23T21:26:14.301Z,16.83
2023-02-23T21:28:20.800Z,18.10
2023-02-23T21:30:28.697Z,14.88
2023-02-23T21:32:35.400Z,19.75
2023-02-23T21:34:43.394Z,18.05
2023-02-23T21:36:50.356Z,20.23
2023-02-23T21:38:55.245Z,17.55
2023-02-23T21:41:00.394Z,20.13
2023-02-23T21:45:15.298Z,21.35
2023-02-23T21:47:20.236Z,20.33
2023-02-23T21:49:25.092Z,24.88
2023-02-23T21:51:36.675Z,22.46
2023-02-23T21:53:42.768Z,15.48
2023-02-23T21:55:47.639Z,19.55
2023-02-23T21:57:55.955Z,18.60
2023-02-23T22:00:00.805Z,18.92
2023-02-23T22:02:05.694Z,18.85
2023-02-23T22:04:12.377Z,18.95
2023-02-23T22:06:18.581Z,20.38
2023-02-23T22:08:26.048Z,17.27
2023-02-23T22:10:30.966Z,20.30
2023-02-23T22:12:36.050Z,19.60
2023-02-23T22:14:40.812Z,17.70
2023-02-23T22:16:45.899Z,20.88
2023-02-23T22:18:50.865Z,20.65
2023-02-23T22:20:59.281Z,20.25
2023-02-23T22:23:04.181Z,16.80
2023-02-23T22:25:12.996Z,17.85
2023-02-23T22:27:17.922Z,19.17
2023-02-23T22:29:23.954Z,19.08
2023-02-23T22:31:28.987Z,19.30
2023-02-23T22:33:34.486Z,20.17
2023-02-23T22:35:42.453Z,18.13
2023-02-23T22:37:47.485Z,19.50
2023-02-23T22:39:52.251Z,19.58
2023-02-23T22:41:59.999Z,21.75
2023-02-23T22:44:05.201Z,20.27
2023-02-23T22:48:15.429Z,19.17
2023-02-23T22:50:20.814Z,21.65
2023-02-23T22:52:26.835Z,21.52
2023-02-23T22:54:35.427Z,20.30
2023-02-23T22:56:42.206Z,19.85
2023-02-23T22:58:52.318Z,19.00
2023-02-23T23:01:06.683Z,19.98
2023-02-23T23:03:13.203Z,19.70
2023-02-23T23:05:18.792Z,18.67
2023-02-23T23:07:24.948Z,21.33
2023-02-23T23:09:30.899Z,18.88
2023-02-23T23:11:36.424Z,17.40
2023-02-23T23:13:44.865Z,21.05
2023-02-23T23:15:55.247Z,22.08
2023-02-23T23:18:00.186Z,22.42
2023-02-23T23:20:11.740Z,22.08
2023-02-23T23:22:17.526Z,20.00
2023-02-23T23:24:22.320Z,22.80
2023-02-23T23:26:29.123Z,20.98
2023-02-23T23:28:40.162Z,19.75
2023-02-23T23:30:47.441Z,23.48
2023-02-23T23:32:55.124Z,20.20
2023-02-23T23:34:59.995Z,24.52
2023-02-23T23:37:04.821Z,22.85
2023-02-23T23:39:12.090Z,20.77
2023-02-23T23:41:17.201Z,19.60
2023-02-23T23:45:28.251Z,18.80
2023-02-23T23:47:33.180Z,31.75
2023-02-23T23:49:40.932Z,26.23
2023-02-23T23:51:50.040Z,22.73
2023-02-23T23:53:57.466Z,21.42
2023-02-23T23:56:09.138Z,26.38
2023-02-23T23:58:14.070Z,24.92
